Search for airport 
image banner adimage banner adimage banner ad
image banner ad

2IA8 - Burgess Health Center

Located in Onawa, United States

ICAO - 2IA8, IATA -

Data provided by Airmate  

General information

Coordinates: N42°1'35" W96°6'23"
Elevation is 1049 feet MSL.
Magnetic variation is 06° East
View others Airports in Iowa

Operational data

Special qualification required
Current time UTC:
Current local time:
Weather at : KTQE - Tekamah Muni ( 30 km )
METAR: KTQE 181754Z AUTO 08011G18KT 10SM CLR 32/14 A2984 RMK AO2 SLP089 60001 T03170139 10322 20206 58006
View NOTAMs / SUP AIP / TFR affecting this airport [VIEW]
Communications frequencies: [VIEW]

Runways:

Airport contact information

Address: Onawa United States

Satellite view of 2IA8